createdAt,value
2023-03-26T00:01:21.334Z,6.30
2023-03-26T00:03:53.809Z,6.30
2023-03-26T00:06:29.252Z,6.30
2023-03-26T00:08:57.528Z,6.30
2023-03-26T00:11:27.409Z,6.40
2023-03-26T00:13:56.855Z,6.50
2023-03-26T00:16:26.043Z,6.50
2023-03-26T00:18:53.442Z,6.60
2023-03-26T00:21:27.713Z,6.70
2023-03-26T00:23:57.120Z,6.70
2023-03-26T00:26:24.018Z,6.70
2023-03-26T00:28:52.422Z,6.80
2023-03-26T00:31:19.351Z,6.80
2023-03-26T00:33:47.665Z,6.80
2023-03-26T00:36:17.286Z,6.80
2023-03-26T00:38:45.044Z,6.80
2023-03-26T00:41:22.844Z,6.70
2023-03-26T00:43:51.926Z,6.80
2023-03-26T00:46:18.737Z,6.80
2023-03-26T00:48:46.522Z,6.70
2023-03-26T00:51:15.828Z,6.80
2023-03-26T00:53:44.702Z,6.80
2023-03-26T00:56:12.245Z,6.80
2023-03-26T00:58:39.316Z,6.80
2023-03-26T01:01:15.343Z,6.90
2023-03-26T01:03:53.211Z,6.90
2023-03-26T01:06:36.727Z,6.90
2023-03-26T01:09:14.340Z,6.90
2023-03-26T01:11:41.048Z,6.90
2023-03-26T01:14:14.357Z,6.80
2023-03-26T01:16:53.617Z,6.80
2023-03-26T01:19:45.682Z,6.70
2023-03-26T01:22:18.656Z,6.70
2023-03-26T01:24:52.214Z,6.60
2023-03-26T01:27:28.995Z,6.50
2023-03-26T01:30:05.042Z,6.40
2023-03-26T01:32:52.780Z,6.40
2023-03-26T01:35:24.550Z,6.30
2023-03-26T01:38:13.393Z,6.20
2023-03-26T01:40:46.910Z,6.20
2023-03-26T01:43:24.996Z,6.10
2023-03-26T01:45:53.112Z,6.10
2023-03-26T01:48:20.683Z,6.00
2023-03-26T01:50:48.964Z,6.00
2023-03-26T01:53:15.820Z,6.00
2023-03-26T01:56:04.047Z,6.10
2023-03-26T01:59:17.669Z,6.10
2023-03-26T02:01:54.885Z,6.10
2023-03-26T02:04:58.873Z,6.10
2023-03-26T02:07:43.569Z,6.20
2023-03-26T02:10:17.207Z,6.20
2023-03-26T02:12:44.933Z,6.30
2023-03-26T02:15:12.034Z,6.30
2023-03-26T02:17:41.726Z,6.30
2023-03-26T02:20:10.882Z,6.30
2023-03-26T02:22:41.531Z,6.30
2023-03-26T02:25:10.513Z,6.40
2023-03-26T02:27:38.486Z,6.30
2023-03-26T02:30:07.752Z,6.30
2023-03-26T02:32:35.260Z,6.40
2023-03-26T02:35:02.853Z,6.40
2023-03-26T02:37:30.402Z,6.40
2023-03-26T02:39:57.045Z,6.40
2023-03-26T02:42:23.698Z,6.40
2023-03-26T02:44:50.333Z,6.40
2023-03-26T02:47:17.092Z,6.40
2023-03-26T02:49:44.465Z,6.40
2023-03-26T02:52:11.287Z,6.40
2023-03-26T02:54:38.235Z,6.30
2023-03-26T02:57:04.933Z,6.30
2023-03-26T02:59:31.606Z,6.20
2023-03-26T03:01:58.269Z,6.10
2023-03-26T03:04:24.983Z,6.10
2023-03-26T03:06:57.347Z,6.10
2023-03-26T03:09:24.977Z,6.10
2023-03-26T03:11:52.610Z,6.00
2023-03-26T03:14:19.662Z,6.00
2023-03-26T03:16:46.409Z,6.00
2023-03-26T03:19:13.273Z,6.00
2023-03-26T03:21:41.554Z,5.90
2023-03-26T03:24:09.020Z,5.90
2023-03-26T03:26:36.417Z,5.80
2023-03-26T03:29:03.231Z,5.90
2023-03-26T03:31:29.911Z,5.80
2023-03-26T03:33:56.686Z,5.90
2023-03-26T03:36:23.797Z,5.90
2023-03-26T03:38:51.075Z,5.90
2023-03-26T03:41:18.593Z,5.90
2023-03-26T03:43:46.174Z,5.90
2023-03-26T03:46:13.210Z,5.80
2023-03-26T03:48:40.137Z,5.80
2023-03-26T03:51:07.022Z,5.80
2023-03-26T03:53:36.924Z,5.80
2023-03-26T03:56:04.778Z,5.80
2023-03-26T03:58:31.517Z,5.80
2023-03-26T04:01:00.879Z,5.80
2023-03-26T04:03:34.022Z,5.80
2023-03-26T04:06:01.347Z,5.90
2023-03-26T04:08:28.057Z,5.90
2023-03-26T04:10:54.779Z,5.90
2023-03-26T04:13:21.623Z,5.90
2023-03-26T04:15:48.533Z,5.80
2023-03-26T04:18:15.947Z,5.80
2023-03-26T04:20:47.324Z,5.80
2023-03-26T04:23:18.631Z,5.80
2023-03-26T04:25:49.953Z,5.80
2023-03-26T04:28:28.766Z,5.80
2023-03-26T04:30:57.107Z,5.80
2023-03-26T04:33:25.014Z,5.70
2023-03-26T04:35:52.136Z,5.70
2023-03-26T04:38:19.129Z,5.70
2023-03-26T04:40:48.842Z,5.60
2023-03-26T04:43:17.954Z,5.60
2023-03-26T04:45:48.096Z,5.60
2023-03-26T04:48:14.808Z,5.70
2023-03-26T04:50:45.730Z,5.70
2023-03-26T04:53:14.900Z,5.80
2023-03-26T04:58:30.063Z,5.70
2023-03-26T05:00:57.278Z,5.80
2023-03-26T05:03:24.045Z,5.80
2023-03-26T05:05:51.454Z,5.90
2023-03-26T05:08:18.065Z,5.90
2023-03-26T05:10:44.712Z,6.00
2023-03-26T05:13:11.365Z,6.00
2023-03-26T05:15:37.978Z,6.00
2023-03-26T05:18:04.703Z,6.00
2023-03-26T05:20:31.591Z,6.10
2023-03-26T05:22:58.277Z,6.20
2023-03-26T05:25:25.582Z,6.20
2023-03-26T05:27:52.661Z,6.20
2023-03-26T05:30:21.059Z,6.20
2023-03-26T05:32:49.503Z,6.20
2023-03-26T05:35:19.883Z,6.30
2023-03-26T05:37:52.820Z,6.20
2023-03-26T05:40:20.103Z,6.30
2023-03-26T05:42:47.585Z,6.40
2023-03-26T05:45:15.695Z,6.40
2023-03-26T05:47:42.895Z,6.50
2023-03-26T05:50:10.494Z,6.60
2023-03-26T05:52:37.417Z,6.60
2023-03-26T05:55:05.304Z,6.70
2023-03-26T05:57:32.336Z,6.70
2023-03-26T05:59:59.046Z,6.70
2023-03-26T06:02:25.842Z,6.80
2023-03-26T06:04:52.551Z,6.80
2023-03-26T06:07:19.806Z,6.90
2023-03-26T06:09:46.693Z,6.80
2023-03-26T06:12:14.359Z,6.90
2023-03-26T06:14:42.946Z,6.90
2023-03-26T06:17:10.320Z,6.80
2023-03-26T06:19:37.579Z,6.80
2023-03-26T06:22:04.930Z,6.90
2023-03-26T06:24:32.701Z,7.00
2023-03-26T06:26:59.348Z,7.20
2023-03-26T06:29:26.130Z,7.30
2023-03-26T06:31:52.913Z,7.40
2023-03-26T06:34:22.124Z,7.40
2023-03-26T06:36:48.961Z,7.30
2023-03-26T06:39:16.130Z,7.40
2023-03-26T06:41:42.791Z,7.40
2023-03-26T06:44:10.222Z,7.40
2023-03-26T06:46:37.307Z,7.30
2023-03-26T06:49:04.132Z,7.30
2023-03-26T06:51:30.929Z,7.30
2023-03-26T06:53:57.798Z,7.30
2023-03-26T06:56:24.467Z,7.30
2023-03-26T06:58:51.149Z,7.30
2023-03-26T07:01:17.840Z,7.10
2023-03-26T07:03:44.581Z,7.20
2023-03-26T07:06:11.303Z,7.20
2023-03-26T07:08:37.936Z,7.30
2023-03-26T07:11:04.828Z,7.10
2023-03-26T07:13:31.466Z,7.10
2023-03-26T07:15:58.174Z,7.00
2023-03-26T07:18:24.872Z,7.00
2023-03-26T07:20:52.016Z,7.10
2023-03-26T07:23:20.638Z,7.10
2023-03-26T07:25:48.608Z,7.00
2023-03-26T07:28:26.807Z,7.00
2023-03-26T07:30:53.656Z,7.00
2023-03-26T07:33:47.494Z,6.90
2023-03-26T07:36:32.852Z,6.80
2023-03-26T07:39:27.878Z,6.90
2023-03-26T07:42:30.148Z,6.90
2023-03-26T07:45:03.816Z,6.90
2023-03-26T07:47:33.658Z,6.90
2023-03-26T07:50:00.902Z,6.80
2023-03-26T07:52:28.223Z,6.80
2023-03-26T07:54:55.527Z,6.80
2023-03-26T07:57:32.235Z,6.80
2023-03-26T08:00:10.006Z,6.80
2023-03-26T08:02:49.032Z,6.80
2023-03-26T08:05:27.676Z,6.80
2023-03-26T08:08:16.482Z,6.80
2023-03-26T08:10:45.976Z,6.80
2023-03-26T08:13:30.571Z,6.80
2023-03-26T08:16:23.712Z,6.80
2023-03-26T08:19:16.616Z,6.90
2023-03-26T08:21:53.356Z,6.90
2023-03-26T08:24:46.895Z,6.90
2023-03-26T08:27:32.213Z,6.90
2023-03-26T08:30:30.931Z,7.00
2023-03-26T08:33:00.645Z,7.10
2023-03-26T08:35:28.497Z,7.10
2023-03-26T08:37:55.270Z,7.10
2023-03-26T08:40:59.041Z,7.10
2023-03-26T08:43:41.420Z,7.00
2023-03-26T08:46:27.462Z,6.90
2023-03-26T08:49:00.906Z,6.80
2023-03-26T08:51:41.687Z,6.80
2023-03-26T08:54:46.430Z,6.90
2023-03-26T08:57:38.541Z,6.90
2023-03-26T09:00:27.728Z,6.90
2023-03-26T09:03:16.254Z,6.90
2023-03-26T09:06:07.538Z,6.80
2023-03-26T09:09:04.502Z,6.80
2023-03-26T09:11:50.139Z,6.80
2023-03-26T09:14:48.002Z,6.80
2023-03-26T09:17:21.094Z,6.70
2023-03-26T09:20:02.669Z,6.80
2023-03-26T09:22:43.182Z,6.70
2023-03-26T09:25:34.521Z,6.80
2023-03-26T09:28:29.037Z,6.70
2023-03-26T09:31:17.251Z,6.90
2023-03-26T09:34:01.630Z,6.80
2023-03-26T09:36:49.926Z,6.90
2023-03-26T09:39:35.050Z,6.90
2023-03-26T09:42:39.387Z,6.80
2023-03-26T09:45:19.326Z,6.70
2023-03-26T09:47:55.603Z,6.80
2023-03-26T09:50:57.704Z,6.90
2023-03-26T09:53:43.318Z,6.90
2023-03-26T09:56:17.938Z,6.80
2023-03-26T09:59:17.553Z,6.90
2023-03-26T10:02:19.100Z,6.90
2023-03-26T10:05:05.634Z,6.90
2023-03-26T10:07:55.852Z,7.00
2023-03-26T10:11:07.442Z,7.10
2023-03-26T10:13:58.269Z,7.30
2023-03-26T10:16:53.853Z,7.50
2023-03-26T10:19:34.056Z,7.60
2023-03-26T10:22:20.043Z,7.50
2023-03-26T10:25:16.552Z,7.50
2023-03-26T10:28:21.161Z,7.60
2023-03-26T10:31:03.450Z,7.50
2023-03-26T10:34:02.714Z,7.50
2023-03-26T10:36:39.542Z,7.60
2023-03-26T10:39:38.752Z,7.60
2023-03-26T10:42:31.312Z,7.60
2023-03-26T10:45:14.609Z,7.70
2023-03-26T10:48:04.193Z,7.80
2023-03-26T10:50:33.977Z,7.80
2023-03-26T10:53:13.220Z,7.80
2023-03-26T10:55:45.333Z,7.90
2023-03-26T10:58:27.107Z,7.90
2023-03-26T11:01:02.577Z,8.00
2023-03-26T11:03:52.394Z,8.20
2023-03-26T11:06:25.414Z,8.30
2023-03-26T11:09:05.488Z,8.30
2023-03-26T11:11:58.099Z,8.30
2023-03-26T11:14:42.729Z,8.40
2023-03-26T11:17:41.785Z,8.40
2023-03-26T11:20:16.601Z,8.50
2023-03-26T11:23:14.473Z,8.50
2023-03-26T11:26:39.374Z,8.50
2023-03-26T11:29:39.741Z,8.40
2023-03-26T11:32:12.201Z,8.60
2023-03-26T11:34:59.553Z,8.70
2023-03-26T11:37:46.319Z,8.80
2023-03-26T11:40:29.300Z,8.90
2023-03-26T11:43:01.461Z,9.00
2023-03-26T11:45:34.123Z,9.10
2023-03-26T11:48:47.365Z,9.30
2023-03-26T11:51:20.410Z,9.30
2023-03-26T11:53:47.138Z,9.30
2023-03-26T11:57:05.213Z,9.40
2023-03-26T11:59:57.069Z,9.60
2023-03-26T12:02:38.645Z,9.70
2023-03-26T12:05:18.205Z,9.60
2023-03-26T12:07:52.357Z,9.70
2023-03-26T12:10:34.895Z,9.70
2023-03-26T12:13:14.793Z,9.70
2023-03-26T12:15:43.960Z,9.90
2023-03-26T12:18:27.971Z,9.80
2023-03-26T12:21:08.981Z,9.80
2023-03-26T12:23:57.575Z,9.70
2023-03-26T12:26:39.402Z,9.30
2023-03-26T12:29:17.796Z,8.10
2023-03-26T12:32:03.309Z,7.60
2023-03-26T12:34:35.497Z,7.40
2023-03-26T12:37:04.051Z,7.40
2023-03-26T12:40:10.698Z,7.30
2023-03-26T12:44:49.495Z,7.10
2023-03-26T12:45:27.877Z,7.00
2023-03-26T12:48:04.350Z,6.90
2023-03-26T12:50:47.469Z,6.80
2023-03-26T12:53:26.405Z,6.50
2023-03-26T12:56:02.440Z,5.80
2023-03-26T12:58:39.491Z,5.30
2023-03-26T13:01:29.821Z,5.30
2023-03-26T13:04:22.333Z,5.40
2023-03-26T13:07:02.066Z,5.70
2023-03-26T13:09:59.976Z,6.00
2023-03-26T13:12:48.716Z,6.10
2023-03-26T13:15:33.086Z,6.20
2023-03-26T13:18:30.419Z,6.00
2023-03-26T13:21:05.950Z,4.80
2023-03-26T13:23:41.497Z,4.80
2023-03-26T13:26:35.293Z,4.90
2023-03-26T13:29:15.196Z,5.20
2023-03-26T13:32:09.376Z,5.30
2023-03-26T13:35:00.206Z,5.50
2023-03-26T13:37:39.845Z,5.80
2023-03-26T13:40:25.774Z,6.10
2023-03-26T13:43:18.053Z,6.40
2023-03-26T13:46:32.098Z,6.70
2023-03-26T13:49:07.851Z,6.90
2023-03-26T13:51:51.938Z,7.00
2023-03-26T13:54:40.948Z,7.10
2023-03-26T13:57:20.173Z,7.20
2023-03-26T14:00:07.922Z,7.40
2023-03-26T14:02:47.760Z,7.50
2023-03-26T14:05:22.817Z,7.70
2023-03-26T14:08:01.444Z,7.80
2023-03-26T14:10:35.421Z,7.90
2023-03-26T14:13:07.833Z,8.10
2023-03-26T14:15:45.891Z,8.20
2023-03-26T14:18:28.733Z,8.30
2023-03-26T14:21:38.100Z,8.20
2023-03-26T14:24:31.014Z,8.20
2023-03-26T14:27:17.770Z,8.30
2023-03-26T14:30:17.714Z,8.40
2023-03-26T14:33:27.219Z,8.40
2023-03-26T14:36:07.652Z,8.50
2023-03-26T14:38:43.562Z,8.70
2023-03-26T14:41:25.474Z,8.80
2023-03-26T14:44:22.749Z,8.80
2023-03-26T14:47:19.739Z,8.80
2023-03-26T14:50:06.502Z,8.80
2023-03-26T14:52:47.545Z,8.90
2023-03-26T14:55:37.444Z,8.90
2023-03-26T14:58:25.188Z,9.00
2023-03-26T15:01:27.659Z,9.10
2023-03-26T15:04:15.383Z,9.20
2023-03-26T15:07:10.548Z,9.40
2023-03-26T15:10:02.511Z,9.40
2023-03-26T15:12:49.816Z,9.50
2023-03-26T15:15:54.045Z,9.70
2023-03-26T15:18:59.971Z,9.80
2023-03-26T15:21:44.251Z,9.90
2023-03-26T15:24:49.770Z,9.90
2023-03-26T15:27:59.450Z,10.00
2023-03-26T15:30:57.862Z,9.90
2023-03-26T15:33:43.821Z,10.00
2023-03-26T15:36:38.218Z,10.00
2023-03-26T15:40:07.461Z,10.20
2023-03-26T15:42:57.998Z,10.20
2023-03-26T15:45:40.740Z,10.30
2023-03-26T15:48:13.414Z,10.30
2023-03-26T15:50:55.872Z,10.40
2023-03-26T15:53:49.553Z,10.40
2023-03-26T15:56:44.006Z,10.40
2023-03-26T15:59:31.594Z,10.40
2023-03-26T16:02:19.191Z,10.40
2023-03-26T16:05:32.574Z,10.40
2023-03-26T16:08:28.292Z,10.50
2023-03-26T16:11:00.289Z,10.30
2023-03-26T16:13:32.563Z,10.30
2023-03-26T16:16:06.856Z,10.30
2023-03-26T16:18:37.227Z,10.30
2023-03-26T16:21:30.651Z,10.20
2023-03-26T16:24:02.264Z,10.20
2023-03-26T16:26:44.002Z,10.20
2023-03-26T16:29:24.064Z,10.10
2023-03-26T16:32:07.523Z,10.00
2023-03-26T16:34:45.336Z,9.80
2023-03-26T16:37:36.026Z,9.70
2023-03-26T16:40:17.997Z,9.50
2023-03-26T16:43:09.056Z,9.40
2023-03-26T16:45:54.284Z,9.40
2023-03-26T16:48:55.726Z,9.20
2023-03-26T16:51:51.004Z,9.10
2023-03-26T16:54:42.549Z,9.20
2023-03-26T16:57:23.014Z,9.00
2023-03-26T17:00:07.348Z,8.90
2023-03-26T17:02:53.325Z,8.90
2023-03-26T17:05:34.132Z,8.80
2023-03-26T17:08:18.973Z,8.80
2023-03-26T17:11:18.607Z,8.80
2023-03-26T17:13:48.025Z,8.70
2023-03-26T17:16:22.510Z,8.70
2023-03-26T17:19:21.940Z,8.70
2023-03-26T17:22:11.273Z,8.60
2023-03-26T17:24:55.574Z,8.50
2023-03-26T17:27:38.254Z,8.40
2023-03-26T17:30:33.446Z,8.30
2023-03-26T17:33:25.669Z,7.70
2023-03-26T17:36:12.410Z,7.40
2023-03-26T17:38:39.198Z,7.20
2023-03-26T17:41:07.751Z,7.10
2023-03-26T17:43:46.116Z,7.10
2023-03-26T17:46:41.257Z,7.00
2023-03-26T17:49:21.330Z,7.00
2023-03-26T17:52:00.854Z,7.00
2023-03-26T17:54:39.318Z,7.00
2023-03-26T17:57:16.643Z,7.10
2023-03-26T17:59:46.897Z,7.00
2023-03-26T18:02:20.621Z,7.00
2023-03-26T18:04:51.594Z,7.00
2023-03-26T18:07:44.803Z,7.00
2023-03-26T18:10:32.921Z,7.00
2023-03-26T18:13:26.486Z,7.00
2023-03-26T18:16:13.442Z,6.90
2023-03-26T18:18:49.552Z,6.90
2023-03-26T18:21:30.345Z,6.90
2023-03-26T18:23:59.613Z,6.90
2023-03-26T18:26:49.046Z,6.90
2023-03-26T18:29:32.082Z,6.80
2023-03-26T18:32:19.724Z,6.80
2023-03-26T18:34:50.011Z,6.70
2023-03-26T18:37:22.452Z,6.70
2023-03-26T18:40:12.636Z,6.60
2023-03-26T18:42:41.429Z,6.50
2023-03-26T18:45:26.746Z,6.50
2023-03-26T18:47:59.697Z,6.40
2023-03-26T18:50:36.581Z,6.40
2023-03-26T18:53:06.936Z,6.40
2023-03-26T18:55:39.300Z,6.40
2023-03-26T18:58:34.362Z,6.30
2023-03-26T19:01:04.477Z,6.30
2023-03-26T19:03:35.814Z,6.40
2023-03-26T19:06:04.617Z,6.40
2023-03-26T19:08:34.952Z,6.40
2023-03-26T19:11:07.107Z,6.40
2023-03-26T19:13:36.164Z,6.40
2023-03-26T19:16:19.698Z,6.40
2023-03-26T19:18:47.867Z,6.40
2023-03-26T19:21:18.028Z,6.40
2023-03-26T19:23:47.235Z,6.40
2023-03-26T19:26:15.124Z,6.40
2023-03-26T19:28:54.231Z,6.40
2023-03-26T19:31:38.769Z,6.40
2023-03-26T19:34:14.731Z,6.50
2023-03-26T19:37:00.936Z,6.40
2023-03-26T19:39:41.457Z,6.30
2023-03-26T19:42:14.438Z,6.30
2023-03-26T19:44:43.907Z,6.30
2023-03-26T19:47:50.179Z,6.20
2023-03-26T19:50:28.861Z,6.30
2023-03-26T19:53:17.903Z,6.30
2023-03-26T19:55:58.703Z,6.30
2023-03-26T19:58:29.798Z,6.20
2023-03-26T20:00:56.937Z,5.70
2023-03-26T20:03:40.393Z,5.50
2023-03-26T20:06:11.923Z,5.50
2023-03-26T20:08:40.479Z,5.50
2023-03-26T20:11:15.553Z,5.50
2023-03-26T20:13:42.371Z,5.60
2023-03-26T20:16:29.969Z,5.60
2023-03-26T20:19:02.252Z,5.70
2023-03-26T20:21:29.715Z,5.70
2023-03-26T20:23:56.366Z,5.70
2023-03-26T20:26:24.008Z,5.70
2023-03-26T20:28:53.580Z,5.70
2023-03-26T20:31:26.818Z,5.70
2023-03-26T20:33:55.086Z,5.70
2023-03-26T20:36:33.474Z,5.70
2023-03-26T20:39:02.584Z,5.70
2023-03-26T20:41:29.458Z,5.70
2023-03-26T20:43:56.899Z,5.70
2023-03-26T20:46:31.650Z,5.70
2023-03-26T20:48:59.656Z,5.60
2023-03-26T20:51:28.057Z,5.60
2023-03-26T20:53:55.677Z,5.60
2023-03-26T20:56:22.605Z,5.50
2023-03-26T20:59:03.460Z,5.50
2023-03-26T21:01:34.900Z,5.50
2023-03-26T21:04:04.107Z,5.50
2023-03-26T21:06:31.069Z,5.50
2023-03-26T21:08:58.042Z,5.40
2023-03-26T21:12:04.979Z,5.40
2023-03-26T21:14:41.255Z,5.30
2023-03-26T21:17:19.484Z,5.30
2023-03-26T21:19:47.077Z,5.30
2023-03-26T21:22:43.398Z,5.20
2023-03-26T21:25:20.956Z,5.20
2023-03-26T21:28:14.621Z,5.20
2023-03-26T21:30:42.617Z,5.10
2023-03-26T21:33:09.850Z,5.10
2023-03-26T21:35:36.934Z,5.00
2023-03-26T21:38:05.023Z,5.00
2023-03-26T21:40:32.022Z,5.00
2023-03-26T21:42:59.075Z,4.90
2023-03-26T21:45:28.081Z,5.00
2023-03-26T21:47:55.037Z,5.00
2023-03-26T21:50:23.672Z,5.00
2023-03-26T21:52:51.847Z,5.00
2023-03-26T21:55:21.691Z,5.00
2023-03-26T21:58:07.307Z,4.90
2023-03-26T22:00:57.080Z,4.90
2023-03-26T22:03:32.959Z,4.90
2023-03-26T22:06:05.448Z,4.90
2023-03-26T22:08:39.729Z,4.90
2023-03-26T22:11:08.229Z,4.80
2023-03-26T22:13:35.721Z,4.90
2023-03-26T22:16:02.890Z,4.80
2023-03-26T22:18:30.039Z,4.80
2023-03-26T22:20:59.033Z,4.80
2023-03-26T22:23:27.430Z,4.80
2023-03-26T22:25:54.173Z,4.90
2023-03-26T22:28:20.789Z,4.90
2023-03-26T22:30:47.503Z,4.90
2023-03-26T22:33:14.362Z,4.90
2023-03-26T22:35:44.749Z,4.90
2023-03-26T22:38:11.758Z,4.80
2023-03-26T22:40:38.877Z,4.90
2023-03-26T22:43:05.737Z,4.90
2023-03-26T22:45:32.522Z,4.90
2023-03-26T22:48:03.733Z,4.80
2023-03-26T22:50:32.027Z,4.90
2023-03-26T22:52:58.776Z,4.90
2023-03-26T22:55:28.149Z,4.70
2023-03-26T22:57:56.582Z,4.70
2023-03-26T23:00:23.285Z,4.70
2023-03-26T23:02:50.087Z,4.70
2023-03-26T23:05:20.336Z,4.60
2023-03-26T23:07:47.292Z,4.60
2023-03-26T23:10:14.012Z,4.60
2023-03-26T23:12:41.461Z,4.60
2023-03-26T23:15:09.642Z,4.60
2023-03-26T23:17:38.179Z,4.60
2023-03-26T23:20:15.271Z,4.60
2023-03-26T23:22:43.359Z,4.60
2023-03-26T23:25:10.989Z,4.60
2023-03-26T23:27:37.987Z,4.60
2023-03-26T23:30:05.624Z,4.60
2023-03-26T23:32:32.951Z,4.60
2023-03-26T23:34:59.681Z,4.60
2023-03-26T23:37:26.729Z,4.60
2023-03-26T23:39:53.625Z,4.70
2023-03-26T23:42:28.347Z,4.70
2023-03-26T23:44:56.922Z,4.70
2023-03-26T23:47:23.883Z,4.70
2023-03-26T23:49:50.805Z,4.70
2023-03-26T23:52:17.514Z,4.70
2023-03-26T23:54:44.658Z,4.70
2023-03-26T23:57:11.695Z,4.70
2023-03-26T23:59:38.541Z,4.70
